AK07 weather

Dog Fish Bay Airport
Nanwalek, Alaska, United States

Public forecast

Using degrees Fahrenheit for public forecast. Weather courtesy of forecast.io.

METAR (pilot weather report)

Closest report is Seldovia Airport, 13.2 nm (24.4 km) NNE. Retrieved 2019/07/22 19:53 UTC (52 minutes ago):

PASO 221953Z AUTO 03006KT 10SM CLR 18/13 A3007 RMK AO2 SLP183 T01780133 TSNO

TAF (pilot weather forecast)

Closest forecast is Homer Airport, 27.2 nm (50.4 km) NNE. Retrieved 2019/07/22 18:39 UTC (2 hours ago):

TAF PAHO 221735Z 2218/2318 00000KT P6SM SKC FM222100 24010KT P6SM SCT200 FM230600 VRB04KT P6SM SCT050 BKN200